Time;durP1;ratioP1;P1;durP2;ratioP2;P2;SDS_P1;SDS_P2;PMS_P1;PMS_P2;Temp;Humidity;BMP_temperature;BMP_pressure;BME280_temperature;BME280_humidity;BME280_pressure;Samples;Min_cycle;Max_cycle;Signal;HPM_P1;HPM_P2
2024/03/07 00:03:28;;;;;;;42.50;27.50;;;;;;;;;;103534;1290;544819;-71
2024/03/07 00:07:08;;;;;;;42.20;28.00;;;;;;;;;;103391;1295;545054;-69
2024/03/07 00:10:45;;;;;;;42.70;27.40;;;;;;;;;;103752;1289;545478;-69
2024/03/07 00:14:26;;;;;;;39.60;26.10;;;;;;;;;;103501;1290;545032;-69
2024/03/07 00:17:58;;;;;;;38.40;25.50;;;;;;;;;;104431;1285;544784;-70
2024/03/07 00:21:40;;;;;;;38.90;26.00;;;;;;;;;;103573;1292;544748;-69
2024/03/07 00:25:22;;;;;;;40.80;26.30;;;;;;;;;;103456;1292;544727;-69
2024/03/07 00:28:53;;;;;;;39.90;26.20;;;;;;;;;;103689;1290;545077;-70
2024/03/07 00:32:39;;;;;;;43.00;26.50;;;;;;;;;;103901;1286;544922;-71
2024/03/07 00:36:05;;;;;;;38.30;25.60;;;;;;;;;;103704;1294;545933;-68
2024/03/07 00:39:43;;;;;;;33.80;23.60;;;;;;;;;;103613;1292;544949;-69
2024/03/07 00:43:20;;;;;;;36.80;24.30;;;;;;;;;;103641;1290;545570;-69
2024/03/07 00:46:58;;;;;;;35.20;24.80;;;;;;;;;;103624;1295;544777;-68
2024/03/07 00:50:35;;;;;;;35.80;24.20;;;;;;;;;;103603;1292;545291;-69
2024/03/07 00:54:16;;;;;;;36.60;24.40;;;;;;;;;;103474;1295;544820;-69
2024/03/07 00:57:34;;;;;;;40.10;26.10;;;;;;;;;;103763;1289;545684;-69
2024/03/07 01:01:21;;;;;;;;;;;;;;;;;;;;;
2024/03/07 01:04:48;;;;;;;34.80;23.30;;;;;;;;;;103655;1292;545884;-70
2024/03/07 01:08:27;;;;;;;39.10;24.90;;;;;;;;;;103551;1289;544790;-69
2024/03/07 01:12:05;;;;;;;37.30;24.90;;;;;;;;;;103680;1292;545517;-71
2024/03/07 01:15:41;;;;;;;36.90;23.70;;;;;;;;;;103686;1292;544997;-72
2024/03/07 01:19:21;;;;;;;34.90;23.30;;;;;;;;;;103658;1290;545441;-70
2024/03/07 01:23:01;;;;;;;32.10;21.50;;;;;;;;;;103645;1289;545000;-70
2024/03/07 01:26:36;;;;;;;35.70;22.60;;;;;;;;;;103788;1295;544812;-71
2024/03/07 01:30:21;;;;;;;34.30;23.70;;;;;;;;;;103792;1290;544867;-69
2024/03/07 01:33:48;;;;;;;33.60;23.00;;;;;;;;;;103946;1287;544982;-69
2024/03/07 01:37:26;;;;;;;36.20;23.30;;;;;;;;;;103717;1292;545445;-69
2024/03/07 01:41:02;;;;;;;33.70;22.10;;;;;;;;;;103749;1291;544886;-70
2024/03/07 01:44:47;;;;;;;35.60;23.70;;;;;;;;;;103702;1292;544758;-69
2024/03/07 01:49:11;;;;;;;35.40;22.40;;;;;;;;;;103693;1295;545240;-70
2024/03/07 01:51:56;;;;;;;33.30;22.50;;;;;;;;;;103658;1289;544748;-70
2024/03/07 01:55:33;;;;;;;36.20;23.50;;;;;;;;;;104401;1282;545516;-70
2024/03/07 01:59:12;;;;;;;37.10;24.80;;;;;;;;;;103752;1288;545467;-71
2024/03/07 02:02:50;;;;;;;36.20;23.70;;;;;;;;;;103819;1289;545583;-70
2024/03/07 02:06:34;;;;;;;35.20;23.80;;;;;;;;;;104361;1289;544766;-70
2024/03/07 02:10:03;;;;;;;35.60;24.10;;;;;;;;;;103644;1295;546352;-69
2024/03/07 02:13:41;;;;;;;35.60;24.00;;;;;;;;;;103519;1295;544834;-70
2024/03/07 02:17:18;;;;;;;33.80;22.10;;;;;;;;;;103406;1294;545632;-70
2024/03/07 02:20:55;;;;;;;31.20;21.10;;;;;;;;;;103820;1295;545605;-70
2024/03/07 02:24:32;;;;;;;33.40;21.20;;;;;;;;;;103565;1291;545060;-72
2024/03/07 02:28:10;;;;;;;32.40;21.30;;;;;;;;;;103783;1290;544990;-70
2024/03/07 02:31:55;;;;;;;34.60;22.50;;;;;;;;;;103831;1289;544993;-70
2024/03/07 02:35:25;;;;;;;29.70;20.60;;;;;;;;;;103721;1291;545667;-71
2024/03/07 02:39:03;;;;;;;34.20;22.20;;;;;;;;;;103401;1297;544817;-70
2024/03/07 02:42:40;;;;;;;33.80;22.00;;;;;;;;;;103779;1292;544761;-70
2024/03/07 02:46:19;;;;;;;33.40;21.60;;;;;;;;;;103781;1290;544774;-69
2024/03/07 02:49:55;;;;;;;32.30;20.80;;;;;;;;;;103815;1292;544746;-70
2024/03/07 02:53:39;;;;;;;32.70;21.00;;;;;;;;;;103674;1295;544979;-71
2024/03/07 02:57:12;;;;;;;33.60;21.60;;;;;;;;;;103653;1289;544959;-69
2024/03/07 03:01:17;;;;;;;31.10;20.60;;;;;;;;;;103550;1292;545581;-69
2024/03/07 03:04:25;;;;;;;33.70;21.70;;;;;;;;;;103717;1289;545039;-70
2024/03/07 03:08:34;;;;;;;31.50;21.30;;;;;;;;;;103464;1295;544829;-70
2024/03/07 03:11:39;;;;;;;30.20;19.80;;;;;;;;;;103506;1295;545510;-71
2024/03/07 03:15:20;;;;;;;29.80;20.10;;;;;;;;;;103733;1292;544833;-70
2024/03/07 03:18:56;;;;;;;31.70;19.90;;;;;;;;;;103491;1291;545015;-69
2024/03/07 03:22:32;;;;;;;31.50;20.90;;;;;;;;;;103758;1290;545366;-70
2024/03/07 03:26:39;;;;;;;33.30;21.20;;;;;;;;;;103713;1288;544663;-70
2024/03/07 03:29:50;;;;;;;30.40;20.50;;;;;;;;;;103592;1288;544745;-70
2024/03/07 03:33:33;;;;;;;27.80;18.60;;;;;;;;;;103502;1292;545383;-71
2024/03/07 03:37:20;;;;;;;30.40;19.70;;;;;;;;;;103470;1289;545622;-68
2024/03/07 03:40:40;;;;;;;33.40;20.20;;;;;;;;;;104486;1289;545616;-70
2024/03/07 03:44:13;;;;;;;32.60;21.10;;;;;;;;;;105893;1287;544881;-69
2024/03/07 03:47:51;;;;;;;33.80;20.80;;;;;;;;;;103450;1295;545027;-69
2024/03/07 03:51:31;;;;;;;29.10;19.90;;;;;;;;;;103739;1302;544621;-71
2024/03/07 03:55:10;;;;;;;31.50;20.20;;;;;;;;;;103556;1294;545107;-69
2024/03/07 03:58:48;;;;;;;31.50;20.70;;;;;;;;;;103626;1297;546201;-69
2024/03/07 04:02:28;;;;;;;29.90;19.90;;;;;;;;;;103608;1302;544705;-71
2024/03/07 04:06:02;;;;;;;29.90;19.60;;;;;;;;;;103773;1292;546161;-71
2024/03/07 04:09:39;;;;;;;30.10;19.60;;;;;;;;;;104042;1286;544864;-69
2024/03/07 04:13:17;;;;;;;30.60;19.80;;;;;;;;;;103752;1292;545880;-70
2024/03/07 04:17:00;;;;;;;33.00;21.10;;;;;;;;;;103804;1289;545029;-70
2024/03/07 04:20:35;;;;;;;35.60;22.10;;;;;;;;;;103657;1290;545979;-70
2024/03/07 04:24:20;;;;;;;33.30;21.10;;;;;;;;;;103779;1292;544810;-71
2024/03/07 04:28:00;;;;;;;34.70;21.90;;;;;;;;;;103603;1289;545422;-68
2024/03/07 04:31:24;;;;;;;36.10;23.60;;;;;;;;;;103633;1289;544986;-70
2024/03/07 04:35:07;;;;;;;33.30;21.60;;;;;;;;;;103712;1289;545645;-71
2024/03/07 04:38:48;;;;;;;34.40;21.80;;;;;;;;;;103745;1290;544915;-70
2024/03/07 04:42:16;;;;;;;33.60;22.00;;;;;;;;;;103700;1292;544983;-70
2024/03/07 04:46:06;;;;;;;34.50;22.20;;;;;;;;;;104000;1289;544798;-70
2024/03/07 04:49:31;;;;;;;34.50;22.10;;;;;;;;;;103630;1289;545639;-70
2024/03/07 04:53:09;;;;;;;32.30;20.50;;;;;;;;;;103925;1291;545773;-70
2024/03/07 04:56:42;;;;;;;36.40;21.40;;;;;;;;;;103908;1289;545414;-70
2024/03/07 05:00:29;;;;;;;38.40;23.10;;;;;;;;;;103715;1291;544968;-71
2024/03/07 05:04:02;;;;;;;35.10;22.10;;;;;;;;;;103588;1292;545708;-69
2024/03/07 05:07:40;;;;;;;33.60;21.70;;;;;;;;;;104403;1283;545357;-69
2024/03/07 05:11:17;;;;;;;34.10;22.20;;;;;;;;;;103633;1290;544996;-70
2024/03/07 05:14:53;;;;;;;47.40;27.80;;;;;;;;;;103457;1294;546073;-70
2024/03/07 05:18:32;;;;;;;70.40;35.90;;;;;;;;;;103650;1292;544767;-71
2024/03/07 05:22:13;;;;;;;49.40;28.20;;;;;;;;;;103735;1291;544740;-71
2024/03/07 05:26:06;;;;;;;43.50;25.90;;;;;;;;;;103750;1290;545617;-71
2024/03/07 05:29:29;;;;;;;45.50;26.90;;;;;;;;;;103576;1289;545395;-71
2024/03/07 05:33:01;;;;;;;45.20;25.90;;;;;;;;;;103580;1291;544911;-70
2024/03/07 05:36:46;;;;;;;44.40;25.30;;;;;;;;;;103744;1289;544934;-70
2024/03/07 05:40:16;;;;;;;43.60;25.50;;;;;;;;;;103867;1288;544844;-72
2024/03/07 05:43:54;;;;;;;46.70;28.90;;;;;;;;;;103770;1292;544736;-71
2024/03/07 05:47:37;;;;;;;41.90;24.40;;;;;;;;;;103581;1292;545055;-69
2024/03/07 05:51:10;;;;;;;42.10;24.60;;;;;;;;;;103690;1292;545150;-70
2024/03/07 05:54:56;;;;;;;38.30;24.10;;;;;;;;;;103778;1292;545498;-72
2024/03/07 05:58:23;;;;;;;36.10;22.30;;;;;;;;;;103982;1286;545050;-70
2024/03/07 06:02:00;;;;;;;40.00;24.50;;;;;;;;;;103730;1292;546051;-70
2024/03/07 06:05:47;;;;;;;41.20;23.50;;;;;;;;;;103366;1295;546585;-72
2024/03/07 06:09:21;;;;;;;36.10;22.90;;;;;;;;;;103487;1294;545000;-70
2024/03/07 06:12:54;;;;;;;40.50;26.50;;;;;;;;;;103541;1291;544785;-70
2024/03/07 06:16:52;;;;;;;39.30;25.60;;;;;;;;;;103653;1293;545176;-70
2024/03/07 06:20:24;;;;;;;42.30;25.30;;;;;;;;;;103637;1295;544757;-69
2024/03/07 06:23:47;;;;;;;38.60;25.10;;;;;;;;;;103765;1288;545347;-70
2024/03/07 06:27:37;;;;;;;33.70;22.40;;;;;;;;;;103660;1292;544732;-70
2024/03/07 06:31:10;;;;;;;;;;;;;;;;;;;;;
2024/03/07 06:34:44;;;;;;;39.30;25.30;;;;;;;;;;103725;1289;545662;-70
2024/03/07 06:38:15;;;;;;;32.00;20.90;;;;;;;;;;103681;1300;545918;-70
2024/03/07 06:41:56;;;;;;;35.70;22.40;;;;;;;;;;103654;1289;545063;-71
2024/03/07 06:45:36;;;;;;;36.30;23.80;;;;;;;;;;103829;1289;545613;-72
2024/03/07 06:49:20;;;;;;;38.30;23.40;;;;;;;;;;103570;1289;545001;-72
2024/03/07 06:52:44;;;;;;;35.20;23.70;;;;;;;;;;103710;1289;545517;-71
2024/03/07 06:56:33;;;;;;;39.10;25.90;;;;;;;;;;103616;1303;546672;-71
2024/03/07 07:00:00;;;;;;;36.70;23.20;;;;;;;;;;103882;1288;545794;-70
2024/03/07 07:03:38;;;;;;;40.60;23.50;;;;;;;;;;103863;1292;545507;-69
2024/03/07 07:07:17;;;;;;;39.00;23.80;;;;;;;;;;103414;1305;545173;-70
2024/03/07 07:11:03;;;;;;;37.60;22.50;;;;;;;;;;103637;1289;544797;-70
2024/03/07 07:14:44;;;;;;;37.10;23.00;;;;;;;;;;103593;1291;545413;-70
2024/03/07 07:18:07;;;;;;;36.80;21.10;;;;;;;;;;103889;1293;545116;-70
2024/03/07 07:21:53;;;;;;;38.90;23.00;;;;;;;;;;103332;1294;545816;-71
2024/03/07 07:25:27;;;;;;;35.10;22.80;;;;;;;;;;103663;1289;544831;-70
2024/03/07 07:29:08;;;;;;;38.40;21.50;;;;;;;;;;103756;1292;546190;-69
2024/03/07 07:32:57;;;;;;;40.00;21.90;;;;;;;;;;103822;1292;548203;-71
2024/03/07 07:36:14;;;;;;;47.50;24.10;;;;;;;;;;103557;1295;544889;-71
2024/03/07 07:39:48;;;;;;;37.90;23.80;;;;;;;;;;104575;1283;545065;-69
2024/03/07 07:43:51;;;;;;;37.70;22.70;;;;;;;;;;104486;1282;545676;-70
2024/03/07 07:47:07;;;;;;;44.20;23.50;;;;;;;;;;103923;1288;545470;-71
2024/03/07 07:50:44;;;;;;;40.90;23.80;;;;;;;;;;103740;1289;544795;-70
2024/03/07 07:54:36;;;;;;;38.90;23.10;;;;;;;;;;103485;1291;544979;-70
2024/03/07 07:58:00;;;;;;;38.30;22.50;;;;;;;;;;103742;1289;546209;-71
2024/03/07 08:01:37;;;;;;;30.20;19.80;;;;;;;;;;103705;1288;545133;-72
2024/03/07 08:05:17;;;;;;;36.30;21.60;;;;;;;;;;103668;1291;545198;-70
2024/03/07 08:08:52;;;;;;;33.20;22.00;;;;;;;;;;103579;1289;545365;-68
2024/03/07 08:12:30;;;;;;;31.20;19.20;;;;;;;;;;103651;1291;544850;-70
2024/03/07 08:16:06;;;;;;;27.10;18.70;;;;;;;;;;103802;1291;545435;-71
2024/03/07 08:19:45;;;;;;;29.20;19.30;;;;;;;;;;103931;1290;545011;-71
2024/03/07 08:23:31;;;;;;;28.00;19.50;;;;;;;;;;103719;1291;545011;-71
2024/03/07 08:26:58;;;;;;;27.40;20.10;;;;;;;;;;103686;1290;544909;-71
2024/03/07 08:30:36;;;;;;;23.70;16.70;;;;;;;;;;103697;1292;545714;-71
2024/03/07 08:34:19;;;;;;;34.30;22.00;;;;;;;;;;103678;1291;544762;-71
2024/03/07 08:37:57;;;;;;;26.60;18.50;;;;;;;;;;103727;1288;545612;-70
2024/03/07 08:41:25;;;;;;;26.40;18.30;;;;;;;;;;103612;1292;544916;-67
2024/03/07 08:45:06;;;;;;;26.20;18.10;;;;;;;;;;103708;1290;545080;-71
2024/03/07 08:48:52;;;;;;;26.40;19.40;;;;;;;;;;103670;1289;544755;-70
2024/03/07 08:52:23;;;;;;;24.00;16.80;;;;;;;;;;103741;1292;545610;-71
2024/03/07 08:56:01;;;;;;;27.10;17.40;;;;;;;;;;103710;1292;545032;-70
2024/03/07 08:59:42;;;;;;;28.20;18.10;;;;;;;;;;103852;1294;544780;-72
2024/03/07 09:03:21;;;;;;;29.30;19.20;;;;;;;;;;103751;1289;544847;-72
2024/03/07 09:06:51;;;;;;;26.20;18.60;;;;;;;;;;103788;1293;544975;-71
2024/03/07 09:10:32;;;;;;;33.10;22.70;;;;;;;;;;103662;1291;545990;-70
2024/03/07 09:14:09;;;;;;;42.50;29.50;;;;;;;;;;103692;1289;545073;-70
2024/03/07 09:17:47;;;;;;;28.90;23.10;;;;;;;;;;103748;1292;545250;-70
2024/03/07 09:21:20;;;;;;;24.30;17.70;;;;;;;;;;103692;1290;544827;-72
2024/03/07 09:25:02;;;;;;;28.70;20.00;;;;;;;;;;103854;1289;544997;-72
2024/03/07 09:28:36;;;;;;;34.20;22.80;;;;;;;;;;104545;1283;544864;-71
2024/03/07 09:32:21;;;;;;;28.20;20.10;;;;;;;;;;103743;1291;544781;-71
2024/03/07 09:36:04;;;;;;;36.90;25.30;;;;;;;;;;103757;1295;544947;-70
2024/03/07 09:39:31;;;;;;;45.80;28.30;;;;;;;;;;103418;1295;544995;-72
2024/03/07 09:43:09;;;;;;;33.70;23.00;;;;;;;;;;103766;1301;544769;-71
2024/03/07 09:46:45;;;;;;;47.00;34.80;;;;;;;;;;103740;1290;545609;-71
2024/03/07 09:50:21;;;;;;;91.30;59.70;;;;;;;;;;103729;1294;545012;-71
2024/03/07 09:53:59;;;;;;;38.40;27.30;;;;;;;;;;104000;1289;544782;-71
2024/03/07 09:57:38;;;;;;;30.40;20.00;;;;;;;;;;104597;1282;544932;-69
2024/03/07 10:01:20;;;;;;;31.30;20.20;;;;;;;;;;103832;1290;545664;-70
2024/03/07 10:04:53;;;;;;;35.50;22.30;;;;;;;;;;103842;1289;544961;-70
2024/03/07 10:08:27;;;;;;;30.40;20.90;;;;;;;;;;103862;1288;545580;-71
2024/03/07 10:12:06;;;;;;;29.40;20.30;;;;;;;;;;104077;1294;545060;-70
2024/03/07 10:15:43;;;;;;;28.00;21.10;;;;;;;;;;103723;1289;544947;-71
2024/03/07 10:19:21;;;;;;;34.90;22.90;;;;;;;;;;103838;1290;545389;-70
2024/03/07 10:22:57;;;;;;;33.50;21.10;;;;;;;;;;103798;1289;545391;-71
2024/03/07 10:26:40;;;;;;;34.00;20.40;;;;;;;;;;103587;1292;544968;-70
2024/03/07 10:30:20;;;;;;;30.60;19.90;;;;;;;;;;103834;1289;545075;-71
2024/03/07 10:33:50;;;;;;;35.10;21.20;;;;;;;;;;103655;1292;544766;-70
2024/03/07 10:37:31;;;;;;;37.30;23.30;;;;;;;;;;103695;1291;544963;-71
2024/03/07 10:41:06;;;;;;;32.00;21.20;;;;;;;;;;103786;1291;544788;-71
2024/03/07 10:44:47;;;;;;;30.30;21.20;;;;;;;;;;103824;1292;544731;-70
2024/03/07 10:48:21;;;;;;;31.60;20.70;;;;;;;;;;103754;1291;545048;-71
2024/03/07 10:52:10;;;;;;;33.30;22.10;;;;;;;;;;104524;1282;544704;-71
2024/03/07 10:55:43;;;;;;;28.00;20.80;;;;;;;;;;103640;1292;545453;-70
2024/03/07 10:59:19;;;;;;;30.30;20.80;;;;;;;;;;104499;1285;545013;-71
2024/03/07 11:02:54;;;;;;;30.10;20.60;;;;;;;;;;103693;1291;544926;-71
2024/03/07 11:06:37;;;;;;;31.50;20.20;;;;;;;;;;103690;1289;545042;-72
2024/03/07 11:10:21;;;;;;;;;;;;;;;;;;;;;
2024/03/07 11:13:44;;;;;;;33.90;21.80;;;;;;;;;;103772;1291;545541;-71
2024/03/07 11:17:21;;;;;;;33.90;21.70;;;;;;;;;;103813;1289;544971;-70
2024/03/07 11:20:57;;;;;;;29.20;20.20;;;;;;;;;;103790;1290;545222;-71
2024/03/07 11:24:36;;;;;;;31.70;20.80;;;;;;;;;;103808;1292;544787;-71
2024/03/07 11:28:15;;;;;;;28.20;20.70;;;;;;;;;;103791;1288;544962;-71
2024/03/07 11:31:53;;;;;;;30.60;21.40;;;;;;;;;;103582;1292;545063;-70
2024/03/07 11:35:36;;;;;;;31.40;21.20;;;;;;;;;;103725;1292;544645;-71
2024/03/07 11:39:24;;;;;;;31.40;21.80;;;;;;;;;;103827;1292;544996;-72
2024/03/07 11:42:43;;;;;;;34.10;22.10;;;;;;;;;;103722;1292;544793;-72
2024/03/07 11:46:21;;;;;;;30.50;21.10;;;;;;;;;;103738;1292;544816;-71
2024/03/07 11:49:57;;;;;;;27.50;21.10;;;;;;;;;;103753;1292;545401;-72
2024/03/07 11:53:35;;;;;;;31.30;22.90;;;;;;;;;;103787;1289;545482;-71
2024/03/07 11:57:15;;;;;;;27.50;20.90;;;;;;;;;;103704;1304;545686;-71
2024/03/07 12:00:51;;;;;;;28.70;20.50;;;;;;;;;;103836;1289;545242;-72
2024/03/07 12:04:26;;;;;;;27.10;21.00;;;;;;;;;;103778;1291;544980;-71
2024/03/07 12:08:05;;;;;;;36.10;25.10;;;;;;;;;;103803;1292;545365;-72
2024/03/07 12:11:42;;;;;;;32.40;22.90;;;;;;;;;;103744;1289;545096;-71
2024/03/07 12:15:20;;;;;;;32.40;23.00;;;;;;;;;;103803;1295;544997;-72
2024/03/07 12:18:56;;;;;;;34.70;24.40;;;;;;;;;;103817;1292;545048;-71
2024/03/07 12:22:35;;;;;;;34.40;25.10;;;;;;;;;;104246;1285;545596;-71
2024/03/07 12:26:16;;;;;;;39.50;27.30;;;;;;;;;;103776;1295;546276;-71
2024/03/07 12:29:49;;;;;;;33.00;23.90;;;;;;;;;;103718;1292;545377;-72
2024/03/07 12:33:26;;;;;;;37.50;24.80;;;;;;;;;;103561;1292;544917;-71
2024/03/07 12:37:06;;;;;;;32.60;23.00;;;;;;;;;;103730;1292;544741;-71
2024/03/07 12:40:42;;;;;;;41.80;28.00;;;;;;;;;;103725;1291;545909;-71
2024/03/07 12:44:19;;;;;;;33.30;24.50;;;;;;;;;;103789;1290;545663;-71
2024/03/07 12:48:04;;;;;;;34.50;24.90;;;;;;;;;;103725;1292;545358;-73
2024/03/07 12:51:37;;;;;;;36.30;26.50;;;;;;;;;;103746;1289;545481;-72
2024/03/07 12:55:13;;;;;;;33.00;23.60;;;;;;;;;;103653;1301;545419;-71
2024/03/07 12:58:49;;;;;;;37.60;26.10;;;;;;;;;;104613;1286;545036;-71
2024/03/07 13:02:29;;;;;;;34.30;23.90;;;;;;;;;;103695;1291;544945;-71
2024/03/07 13:06:04;;;;;;;37.20;25.60;;;;;;;;;;103789;1291;545055;-71
2024/03/07 13:09:44;;;;;;;37.40;26.00;;;;;;;;;;103845;1292;545440;-71
2024/03/07 13:13:20;;;;;;;34.60;24.70;;;;;;;;;;103641;1290;544798;-72
2024/03/07 13:16:56;;;;;;;34.00;23.40;;;;;;;;;;103627;1292;546220;-71
2024/03/07 13:20:37;;;;;;;34.90;25.50;;;;;;;;;;103787;1289;544800;-72
2024/03/07 13:24:11;;;;;;;33.40;24.60;;;;;;;;;;103775;1291;545758;-71
2024/03/07 13:28:00;;;;;;;37.70;26.80;;;;;;;;;;103788;1291;545241;-72
2024/03/07 13:31:29;;;;;;;39.30;26.50;;;;;;;;;;104506;1285;544953;-71
2024/03/07 13:35:11;;;;;;;36.40;24.40;;;;;;;;;;103861;1289;544845;-72
2024/03/07 13:38:49;;;;;;;32.90;22.60;;;;;;;;;;103643;1291;544991;-72
2024/03/07 13:42:21;;;;;;;38.10;24.40;;;;;;;;;;103624;1293;546302;-72
2024/03/07 13:45:59;;;;;;;30.50;22.30;;;;;;;;;;104098;1292;544763;-72
2024/03/07 13:49:44;;;;;;;33.00;22.30;;;;;;;;;;103522;1295;544884;-73
2024/03/07 13:53:18;;;;;;;37.20;24.50;;;;;;;;;;103676;1291;544863;-72
2024/03/07 13:56:56;;;;;;;42.40;28.10;;;;;;;;;;103516;1298;545826;-73
2024/03/07 14:00:58;;;;;;;33.30;23.70;;;;;;;;;;104122;1292;546037;-70
2024/03/07 14:04:03;;;;;;;35.30;24.60;;;;;;;;;;104110;1290;545458;-72
2024/03/07 14:07:57;;;;;;;33.80;24.00;;;;;;;;;;103697;1291;544977;-72
2024/03/07 14:11:48;;;;;;;36.40;26.20;;;;;;;;;;103710;1294;544963;-72
2024/03/07 14:15:11;;;;;;;31.60;22.30;;;;;;;;;;103564;1294;545706;-72
2024/03/07 14:18:52;;;;;;;29.90;22.50;;;;;;;;;;104096;1286;544916;-72
2024/03/07 14:22:32;;;;;;;33.60;24.00;;;;;;;;;;103879;1289;545220;-71
2024/03/07 14:25:47;;;;;;;29.20;21.70;;;;;;;;;;103755;1292;544892;-72
2024/03/07 14:29:46;;;;;;;32.20;22.80;;;;;;;;;;103672;1297;544865;-72
2024/03/07 14:33:03;;;;;;;42.20;27.40;;;;;;;;;;103746;1292;545030;-72
2024/03/07 14:36:45;;;;;;;58.90;48.50;;;;;;;;;;103603;1292;545482;-72
2024/03/07 14:40:17;;;;;;;29.70;20.00;;;;;;;;;;103766;1288;544862;-70
2024/03/07 14:43:51;;;;;;;37.30;26.20;;;;;;;;;;103606;1291;545837;-72
2024/03/07 14:47:58;;;;;;;35.00;23.40;;;;;;;;;;103764;1298;545228;-73
2024/03/07 14:51:13;;;;;;;33.90;25.60;;;;;;;;;;103726;1289;546184;-73
2024/03/07 14:54:48;;;;;;;43.30;32.00;;;;;;;;;;104455;1283;545426;-72
2024/03/07 14:58:26;;;;;;;45.20;33.90;;;;;;;;;;103423;1295;545100;-73
2024/03/07 15:02:03;;;;;;;52.80;32.10;;;;;;;;;;103753;1292;545131;-72
2024/03/07 15:05:44;;;;;;;59.20;34.60;;;;;;;;;;104439;1283;545010;-71
2024/03/07 15:09:19;;;;;;;46.00;29.20;;;;;;;;;;104003;1285;544930;-72
2024/03/07 15:13:07;;;;;;;72.60;40.20;;;;;;;;;;103580;1295;545308;-72
2024/03/07 15:16:36;;;;;;;80.90;49.00;;;;;;;;;;103818;1290;545314;-72
2024/03/07 15:20:43;;;;;;;29.90;20.70;;;;;;;;;;103651;1292;544979;-71
2024/03/07 15:23:47;;;;;;;31.10;22.40;;;;;;;;;;103654;1289;545058;-71
2024/03/07 15:27:25;;;;;;;37.60;23.10;;;;;;;;;;103621;1292;544795;-72
2024/03/07 15:31:06;;;;;;;27.30;19.00;;;;;;;;;;103701;1290;545020;-72
2024/03/07 15:34:43;;;;;;;42.50;26.10;;;;;;;;;;103807;1290;544853;-71
2024/03/07 15:38:40;;;;;;;34.00;22.00;;;;;;;;;;103722;1289;544707;-71
2024/03/07 15:41:54;;;;;;;33.00;22.10;;;;;;;;;;103593;1292;544979;-72
2024/03/07 15:45:42;;;;;;;39.60;27.60;;;;;;;;;;103711;1292;544873;-71
2024/03/07 15:49:09;;;;;;;31.00;21.50;;;;;;;;;;103750;1295;545461;-71
2024/03/07 15:52:53;;;;;;;56.10;35.50;;;;;;;;;;103715;1289;545066;-72
2024/03/07 15:56:24;;;;;;;32.30;23.00;;;;;;;;;;103574;1291;545053;-71
2024/03/07 16:00:13;;;;;;;33.50;22.20;;;;;;;;;;103361;1295;545069;-71
2024/03/07 16:03:41;;;;;;;33.10;22.50;;;;;;;;;;103582;1295;544867;-71
2024/03/07 16:07:18;;;;;;;75.30;42.20;;;;;;;;;;103699;1289;545678;-70
2024/03/07 16:11:07;;;;;;;41.80;24.30;;;;;;;;;;103433;1290;545053;-71
2024/03/07 16:14:37;;;;;;;50.10;28.60;;;;;;;;;;104268;1283;544942;-72
2024/03/07 16:18:43;;;;;;;35.70;23.90;;;;;;;;;;103619;1290;545952;-72
2024/03/07 16:21:48;;;;;;;74.40;43.30;;;;;;;;;;103546;1294;545025;-71
2024/03/07 16:25:26;;;;;;;60.50;39.70;;;;;;;;;;103636;1291;544931;-72
2024/03/07 16:29:04;;;;;;;46.60;30.60;;;;;;;;;;103685;1295;544960;-72
2024/03/07 16:33:01;;;;;;;46.50;31.10;;;;;;;;;;103737;1294;548039;-72
2024/03/07 16:36:17;;;;;;;39.90;25.70;;;;;;;;;;103596;1295;545335;-71
2024/03/07 16:39:54;;;;;;;91.00;61.00;;;;;;;;;;103492;1292;545613;-71
2024/03/07 16:43:43;;;;;;;67.50;44.30;;;;;;;;;;103807;1295;544793;-70
2024/03/07 16:47:23;;;;;;;;;;;;;;;;;;;;;
2024/03/07 16:50:47;;;;;;;45.90;31.40;;;;;;;;;;104046;1287;544922;-71
2024/03/07 16:54:21;;;;;;;41.30;26.20;;;;;;;;;;103657;1295;546438;-70
2024/03/07 16:58:04;;;;;;;53.70;38.30;;;;;;;;;;103641;1291;545525;-71
2024/03/07 17:01:44;;;;;;;52.60;38.80;;;;;;;;;;103723;1289;545383;-71
2024/03/07 17:05:26;;;;;;;48.90;34.50;;;;;;;;;;103615;1288;544810;-72
2024/03/07 17:08:53;;;;;;;41.30;27.60;;;;;;;;;;103417;1295;545374;-71
2024/03/07 17:12:32;;;;;;;50.20;29.50;;;;;;;;;;103746;1291;544952;-71
2024/03/07 17:16:26;;;;;;;39.70;26.00;;;;;;;;;;103715;1289;544801;-70
2024/03/07 17:19:51;;;;;;;35.20;24.30;;;;;;;;;;103569;1288;545870;-72
2024/03/07 17:23:38;;;;;;;39.60;26.50;;;;;;;;;;103756;1292;545108;-71
2024/03/07 17:27:13;;;;;;;39.40;25.70;;;;;;;;;;103186;1298;548919;-69
2024/03/07 17:30:38;;;;;;;41.20;28.30;;;;;;;;;;103545;1289;545654;-71
2024/03/07 17:34:16;;;;;;;48.40;29.50;;;;;;;;;;103738;1293;545406;-71
2024/03/07 17:37:56;;;;;;;58.50;33.60;;;;;;;;;;103521;1293;544825;-71
2024/03/07 17:41:31;;;;;;;62.60;34.80;;;;;;;;;;103701;1288;545913;-71
2024/03/07 17:45:19;;;;;;;38.50;23.70;;;;;;;;;;103907;1289;545043;-71
2024/03/07 17:48:48;;;;;;;44.30;30.40;;;;;;;;;;103700;1292;544791;-72
2024/03/07 17:52:26;;;;;;;53.90;33.50;;;;;;;;;;103767;1290;545760;-71
2024/03/07 17:56:05;;;;;;;50.60;31.10;;;;;;;;;;103745;1294;544822;-71
2024/03/07 17:59:35;;;;;;;52.90;33.80;;;;;;;;;;103779;1292;545034;-71
2024/03/07 18:03:16;;;;;;;92.10;55.00;;;;;;;;;;103270;1294;544630;-71
2024/03/07 18:06:52;;;;;;;68.50;36.70;;;;;;;;;;103493;1295;545089;-70
2024/03/07 18:10:34;;;;;;;84.50;54.70;;;;;;;;;;103657;1290;544961;-71
2024/03/07 18:14:17;;;;;;;73.70;44.60;;;;;;;;;;104474;1282;546119;-71
2024/03/07 18:17:48;;;;;;;84.50;48.00;;;;;;;;;;103678;1290;545171;-71
2024/03/07 18:21:23;;;;;;;88.50;48.40;;;;;;;;;;103662;1292;545005;-71
2024/03/07 18:25:18;;;;;;;50.00;30.80;;;;;;;;;;103597;1292;546171;-71
2024/03/07 18:28:40;;;;;;;46.90;29.80;;;;;;;;;;103564;1292;544841;-71
2024/03/07 18:32:36;;;;;;;80.60;56.30;;;;;;;;;;103788;1291;544996;-71
2024/03/07 18:35:56;;;;;;;91.50;50.40;;;;;;;;;;103286;1297;545056;-72
2024/03/07 18:39:33;;;;;;;55.10;35.80;;;;;;;;;;103834;1291;544967;-70
2024/03/07 18:43:07;;;;;;;57.30;34.40;;;;;;;;;;103699;1292;544945;-71
2024/03/07 18:46:47;;;;;;;55.20;34.10;;;;;;;;;;103559;1296;545010;-71
2024/03/07 18:50:28;;;;;;;50.50;32.80;;;;;;;;;;104226;1286;545944;-71
2024/03/07 18:54:00;;;;;;;58.30;36.50;;;;;;;;;;103544;1291;546138;-70
2024/03/07 18:58:00;;;;;;;58.50;37.10;;;;;;;;;;103623;1292;544980;-71
2024/03/07 19:01:16;;;;;;;58.10;35.00;;;;;;;;;;103864;1288;545698;-72
2024/03/07 19:04:53;;;;;;;46.60;29.20;;;;;;;;;;103932;1289;545623;-72
2024/03/07 19:08:33;;;;;;;44.70;29.00;;;;;;;;;;103512;1297;545011;-71
2024/03/07 19:12:10;;;;;;;42.90;27.80;;;;;;;;;;103527;1295;544924;-70
2024/03/07 19:15:55;;;;;;;40.90;27.00;;;;;;;;;;104224;1285;545576;-71
2024/03/07 19:19:25;;;;;;;39.30;26.10;;;;;;;;;;103642;1291;544824;-71
2024/03/07 19:23:03;;;;;;;44.20;28.70;;;;;;;;;;103763;1292;545315;-72
2024/03/07 19:26:46;;;;;;;40.00;27.80;;;;;;;;;;103751;1292;544889;-72
2024/03/07 19:30:17;;;;;;;35.80;24.00;;;;;;;;;;103761;1292;545050;-70
2024/03/07 19:33:58;;;;;;;38.60;26.60;;;;;;;;;;103325;1292;545132;-72
2024/03/07 19:37:30;;;;;;;43.30;32.00;;;;;;;;;;103920;1294;544792;-71
2024/03/07 19:41:09;;;;;;;59.40;40.90;;;;;;;;;;103630;1291;544818;-71
2024/03/07 19:45:00;;;;;;;54.90;40.60;;;;;;;;;;103746;1289;545946;-71
2024/03/07 19:48:24;;;;;;;79.00;54.90;;;;;;;;;;103474;1294;546008;-71
2024/03/07 19:52:09;;;;;;;85.40;55.90;;;;;;;;;;104913;1289;544828;-72
2024/03/07 19:55:37;;;;;;;84.10;58.70;;;;;;;;;;103636;1295;545012;-71
2024/03/07 19:59:35;;;;;;;91.80;66.20;;;;;;;;;;103763;1306;544999;-71
2024/03/07 20:02:59;;;;;;;88.10;66.50;;;;;;;;;;103530;1291;545581;-72
2024/03/07 20:06:34;;;;;;;90.60;72.50;;;;;;;;;;103644;1290;545058;-72
2024/03/07 20:10:07;;;;;;;75.30;48.90;;;;;;;;;;103709;1296;544976;-70
2024/03/07 20:13:41;;;;;;;75.70;43.10;;;;;;;;;;103891;1289;545001;-71
2024/03/07 20:17:24;;;;;;;51.50;32.10;;;;;;;;;;103733;1288;544982;-71
2024/03/07 20:21:02;;;;;;;47.00;30.50;;;;;;;;;;103567;1289;545053;-71
2024/03/07 20:24:38;;;;;;;56.40;32.80;;;;;;;;;;103842;1292;544808;-72
2024/03/07 20:28:15;;;;;;;64.00;40.50;;;;;;;;;;103582;1295;544764;-71
2024/03/07 20:31:51;;;;;;;65.40;41.10;;;;;;;;;;103553;1292;544844;-71
2024/03/07 20:35:31;;;;;;;93.80;61.20;;;;;;;;;;103885;1289;545714;-70